עמוד ראשי
METAR-TAF:

METAR-TAF

שדות תעופה :

Kake, אלסקה, ארצות הברית

קו רוחב: 56-57N, קו אורך: 133-54W, גובה: 52מטר

תצפית מזג אוויר נוכחית

הדו"ח נערך לפני 1 שעות ו 12דקות, בשעה 19:56 UTC
רוח 5קשר מכיוון דרום-מערב
טמפרטורת 13 צלסיוס
לחות 77%
לחץ 1018 hPa
ראות: 16.1קילומטר
שמיים נקיים

METAR: PAFE 171956Z AUTO 23005KT 10SM CLR 13/09 A3007 RMK AO2 SLP195 T01280089

זמן: 13:08 (21:08 UTC)


TAF: חסר

תצפיות ותחזיות מזג אוויר לגבי יותר מ- 4,000 שדות תעופה ברחבי העולם. דוחות METAR ו- TAF.

התחנות הזמינות מסומנות בנקודות צהובות ואדומות על גבי המפה.

העבר את העכבר לנקודה הצבעונית על מנת לראות את שם התחנה.

לאחר מכן, לחץ כדי לראות את תוכן ואת תחזיות מזג האוויר.

כדי לשנות את המפה: לחץ על הכפתורים הירוקים עם הפלוס השחור כדי להתקרב; על הכפתור הירוק עם המקף כדי להתרחק; או בחיצים הירוקים למפות סמוכות.


METAR-TAF: